createdAt,value
2019-02-26T00:00:42.291Z,3.40
2019-02-26T00:05:49.851Z,3.50
2019-02-26T00:10:56.717Z,3.60
2019-02-26T00:16:03.147Z,3.50
2019-02-26T00:21:07.228Z,3.40
2019-02-26T00:26:13.211Z,3.20
2019-02-26T00:31:21.521Z,3.00
2019-02-26T00:36:27.113Z,2.90
2019-02-26T00:41:35.673Z,2.80
2019-02-26T00:46:40.543Z,2.70
2019-02-26T00:51:47.878Z,2.60
2019-02-26T00:56:52.806Z,2.50
2019-02-26T01:01:59.366Z,2.50
2019-02-26T01:07:05.827Z,2.40
2019-02-26T01:12:13.716Z,2.30
2019-02-26T01:17:18.971Z,2.30
2019-02-26T01:22:24.287Z,2.30
2019-02-26T01:27:29.587Z,2.40
2019-02-26T01:32:34.878Z,2.30
2019-02-26T01:37:40.211Z,5.00
2019-02-26T01:42:49.762Z,2.40
2019-02-26T01:47:52.775Z,2.30
2019-02-26T01:52:59.115Z,2.30
2019-02-26T01:58:05.053Z,2.20
2019-02-26T02:03:10.383Z,2.00
2019-02-26T02:08:17.795Z,2.00
2019-02-26T02:13:25.955Z,2.00
2019-02-26T02:18:29.959Z,2.00
2019-02-26T02:23:35.279Z,2.00
2019-02-26T02:28:40.586Z,1.90
2019-02-26T02:33:45.944Z,2.00
2019-02-26T02:38:51.251Z,2.00
2019-02-26T02:43:56.569Z,2.20
2019-02-26T02:49:02.276Z,2.00
2019-02-26T02:54:12.126Z,1.90
2019-02-26T02:59:16.814Z,1.80
2019-02-26T03:04:22.791Z,1.80
2019-02-26T03:09:31.122Z,1.80
2019-02-26T03:14:39.185Z,1.80
2019-02-26T03:19:43.662Z,1.70
2019-02-26T03:24:51.368Z,1.60
2019-02-26T03:29:58.299Z,1.40
2019-02-26T03:35:07.124Z,1.30
2019-02-26T03:40:10.887Z,1.20
2019-02-26T03:45:16.285Z,1.10
2019-02-26T03:50:26.353Z,1.10
2019-02-26T03:55:30.995Z,1.10
2019-02-26T04:00:37.657Z,1.20
2019-02-26T04:05:42.431Z,1.20
2019-02-26T04:10:49.874Z,1.20
2019-02-26T04:15:57.092Z,1.20
2019-02-26T04:21:05.718Z,1.10
2019-02-26T04:26:29.143Z,1.10
2019-02-26T04:32:18.313Z,1.10
2019-02-26T04:38:01.074Z,1.00
2019-02-26T04:43:52.108Z,1.00
2019-02-26T04:48:57.499Z,1.00
2019-02-26T04:54:03.087Z,1.00
2019-02-26T04:59:09.949Z,1.00
2019-02-26T05:04:16.576Z,0.90
2019-02-26T05:09:22.617Z,0.90
2019-02-26T05:14:29.204Z,1.00
2019-02-26T05:19:36.458Z,1.00
2019-02-26T05:24:44.340Z,1.00
2019-02-26T05:29:51.742Z,0.90
2019-02-26T05:34:56.228Z,0.90
2019-02-26T05:40:01.714Z,0.80
2019-02-26T05:45:09.410Z,0.80
2019-02-26T05:50:16.731Z,0.80
2019-02-26T05:55:23.681Z,0.70
2019-02-26T06:00:33.092Z,0.70
2019-02-26T06:05:41.190Z,0.60
2019-02-26T06:10:44.640Z,0.60
2019-02-26T06:15:51.513Z,0.60
2019-02-26T06:20:58.618Z,0.50
2019-02-26T06:26:13.301Z,0.50
2019-02-26T06:31:17.472Z,0.50
2019-02-26T06:36:23.380Z,0.50
2019-02-26T06:41:29.915Z,0.50
2019-02-26T06:46:35.971Z,0.50
2019-02-26T06:51:42.997Z,0.60
2019-02-26T06:56:51.152Z,0.70
2019-02-26T07:01:57.033Z,0.90
2019-02-26T07:07:04.441Z,1.20
2019-02-26T07:12:09.891Z,1.30
2019-02-26T07:17:16.452Z,1.50
2019-02-26T07:22:22.117Z,1.70
2019-02-26T07:27:28.926Z,1.70
2019-02-26T07:32:36.080Z,1.70
2019-02-26T07:37:41.997Z,1.90
2019-02-26T07:42:49.285Z,2.10
2019-02-26T07:47:57.889Z,2.30
2019-02-26T07:53:02.126Z,2.50
2019-02-26T07:58:09.160Z,2.90
2019-02-26T08:03:16.886Z,3.30
2019-02-26T08:08:22.521Z,3.60
2019-02-26T08:13:29.715Z,4.00
2019-02-26T08:18:35.559Z,4.20
2019-02-26T08:23:41.754Z,4.60
2019-02-26T08:28:48.603Z,4.50
2019-02-26T08:33:54.150Z,4.90
2019-02-26T08:39:00.083Z,5.30
2019-02-26T08:44:05.955Z,4.40
2019-02-26T08:49:13.280Z,4.20
2019-02-26T08:54:21.144Z,4.30
2019-02-26T08:59:26.019Z,4.40
2019-02-26T09:04:31.619Z,4.70
2019-02-26T09:09:37.135Z,5.20
2019-02-26T09:14:45.018Z,5.60
2019-02-26T09:19:52.279Z,6.10
2019-02-26T09:24:59.359Z,6.00
2019-02-26T09:30:08.445Z,6.10
2019-02-26T09:35:16.898Z,6.30
2019-02-26T09:40:26.597Z,6.40
2019-02-26T09:45:30.414Z,6.70
2019-02-26T09:50:38.491Z,6.70
2019-02-26T09:55:44.963Z,6.70
2019-02-26T10:00:51.777Z,7.20
2019-02-26T10:05:58.102Z,8.20
2019-02-26T10:11:04.861Z,9.10
2019-02-26T10:16:10.959Z,10.00
2019-02-26T10:21:18.285Z,9.90
2019-02-26T10:26:26.412Z,9.90
2019-02-26T10:31:32.898Z,10.30
2019-02-26T10:36:43.085Z,10.50
2019-02-26T10:41:46.747Z,12.10
2019-02-26T10:46:52.439Z,11.60
2019-02-26T10:51:58.628Z,11.60
2019-02-26T10:57:07.679Z,11.30
2019-02-26T11:02:11.634Z,11.10
2019-02-26T11:07:17.417Z,12.40
2019-02-26T11:12:25.187Z,12.40
2019-02-26T11:17:31.617Z,13.30
2019-02-26T11:22:41.631Z,13.30
2019-02-26T11:27:45.979Z,13.50
2019-02-26T11:32:56.166Z,14.50
2019-02-26T11:37:59.473Z,15.00
2019-02-26T11:43:11.600Z,15.40
2019-02-26T11:48:14.019Z,15.60
2019-02-26T11:53:19.988Z,16.30
2019-02-26T11:58:27.031Z,16.30
2019-02-26T12:03:34.076Z,15.90
2019-02-26T12:08:43.122Z,16.30
2019-02-26T12:13:50.227Z,15.50
2019-02-26T12:18:58.780Z,15.30
2019-02-26T12:24:06.563Z,16.30
2019-02-26T12:29:12.412Z,16.70
2019-02-26T12:34:20.768Z,17.20
2019-02-26T12:39:29.144Z,17.70
2019-02-26T12:44:35.537Z,18.20
2019-02-26T12:49:45.063Z,18.30
2019-02-26T12:54:49.986Z,17.70
2019-02-26T12:59:56.397Z,17.20
2019-02-26T13:05:02.619Z,16.80
2019-02-26T13:10:12.687Z,16.50
2019-02-26T13:15:19.466Z,16.30
2019-02-26T13:20:25.480Z,16.30
2019-02-26T13:25:31.071Z,16.80
2019-02-26T13:30:37.472Z,17.00
2019-02-26T13:35:46.734Z,16.70
2019-02-26T13:40:50.406Z,16.90
2019-02-26T13:45:56.686Z,16.80
2019-02-26T13:51:02.655Z,16.80
2019-02-26T13:56:08.741Z,17.10
2019-02-26T14:01:15.411Z,17.60
2019-02-26T14:06:20.945Z,17.90
2019-02-26T14:11:27.403Z,18.10
2019-02-26T14:16:33.775Z,17.30
2019-02-26T14:21:39.279Z,18.20
2019-02-26T14:26:45.633Z,18.70
2019-02-26T14:31:51.189Z,18.20
2019-02-26T14:36:57.362Z,18.50
2019-02-26T14:42:03.219Z,17.90
2019-02-26T14:47:09.003Z,17.40
2019-02-26T14:52:15.601Z,17.20
2019-02-26T14:57:22.168Z,17.10
2019-02-26T15:02:27.963Z,17.00
2019-02-26T15:07:34.076Z,16.80
2019-02-26T15:12:40.449Z,16.60
2019-02-26T15:17:46.425Z,16.50
2019-02-26T15:22:52.378Z,16.60
2019-02-26T15:28:05.037Z,16.40
2019-02-26T15:33:11.093Z,16.30
2019-02-26T15:38:14.323Z,16.20
2019-02-26T15:43:20.031Z,15.90
2019-02-26T15:48:26.090Z,15.60
2019-02-26T15:53:31.684Z,15.40
2019-02-26T15:58:37.595Z,15.50
2019-02-26T16:03:44.046Z,15.30
2019-02-26T16:08:49.830Z,14.70
2019-02-26T16:13:55.537Z,14.50
2019-02-26T16:19:01.386Z,14.10
2019-02-26T16:24:08.180Z,13.70
2019-02-26T16:29:13.818Z,13.10
2019-02-26T16:34:20.528Z,15.80
2019-02-26T16:39:26.642Z,12.60
2019-02-26T16:44:32.707Z,12.40
2019-02-26T16:49:39.229Z,12.00
2019-02-26T16:54:45.151Z,11.50
2019-02-26T16:59:50.860Z,11.20
2019-02-26T17:04:56.854Z,10.70
2019-02-26T17:10:02.463Z,10.50
2019-02-26T17:15:13.230Z,10.30
2019-02-26T17:20:22.448Z,10.10
2019-02-26T17:25:29.226Z,10.10
2019-02-26T17:30:35.441Z,9.70
2019-02-26T17:35:41.458Z,9.40
2019-02-26T17:40:47.967Z,9.40
2019-02-26T17:45:54.322Z,9.20
2019-02-26T17:51:00.115Z,9.20
2019-02-26T17:56:06.164Z,9.10
2019-02-26T18:01:12.065Z,9.00
2019-02-26T18:06:17.795Z,9.10
2019-02-26T18:11:24.217Z,9.10
2019-02-26T18:16:31.745Z,9.00
2019-02-26T18:21:36.988Z,8.90
2019-02-26T18:26:42.482Z,8.90
2019-02-26T18:31:49.928Z,9.10
2019-02-26T18:36:55.319Z,9.20
2019-02-26T18:42:00.704Z,9.20
2019-02-26T18:47:07.101Z,9.20
2019-02-26T18:52:13.391Z,9.20
2019-02-26T18:57:18.679Z,9.10
2019-02-26T19:02:24.108Z,9.10
2019-02-26T19:07:32.973Z,9.00
2019-02-26T19:12:36.694Z,9.10
2019-02-26T19:17:43.733Z,9.10
2019-02-26T19:22:49.336Z,9.20
2019-02-26T19:27:54.970Z,9.40
2019-02-26T19:33:00.601Z,9.50
2019-02-26T19:38:06.229Z,9.50
2019-02-26T19:43:11.823Z,9.70
2019-02-26T19:48:17.395Z,9.70
2019-02-26T19:53:22.987Z,9.70
2019-02-26T19:58:28.572Z,9.80
2019-02-26T20:03:40.030Z,9.80
2019-02-26T20:08:41.380Z,9.90
2019-02-26T20:13:46.924Z,9.90
2019-02-26T20:18:52.555Z,9.90
2019-02-26T20:23:58.238Z,9.80
2019-02-26T20:29:07.599Z,9.70
2019-02-26T20:34:11.705Z,12.90
2019-02-26T20:39:19.238Z,9.50
2019-02-26T20:44:24.597Z,9.30
2019-02-26T20:49:29.929Z,9.20
2019-02-26T20:54:35.308Z,9.10
2019-02-26T20:59:40.972Z,9.10
2019-02-26T21:04:46.585Z,9.00
2019-02-26T21:09:52.279Z,9.00
2019-02-26T21:14:57.677Z,9.00
2019-02-26T21:20:07.567Z,9.00
2019-02-26T21:25:11.481Z,9.00
2019-02-26T21:30:17.944Z,9.10
2019-02-26T21:35:23.517Z,9.00
2019-02-26T21:40:29.218Z,8.90
2019-02-26T21:45:34.538Z,8.70
2019-02-26T21:50:40.246Z,8.50
2019-02-26T21:55:45.929Z,8.40
2019-02-26T22:00:51.432Z,8.30
2019-02-26T22:06:05.026Z,8.20
2019-02-26T22:11:04.696Z,8.10
2019-02-26T22:16:12.271Z,8.00
2019-02-26T22:21:19.707Z,8.00
2019-02-26T22:26:26.626Z,8.10
2019-02-26T22:31:33.657Z,8.30
2019-02-26T22:36:40.488Z,8.50
2019-02-26T22:41:46.556Z,8.50
2019-02-26T22:46:52.546Z,8.50
2019-02-26T22:51:59.183Z,8.50
2019-02-26T22:57:05.648Z,8.60
2019-02-26T23:02:12.983Z,8.60
2019-02-26T23:07:19.200Z,8.60
2019-02-26T23:12:25.237Z,8.60
2019-02-26T23:17:30.692Z,8.80
2019-02-26T23:22:36.304Z,8.80
2019-02-26T23:27:46.148Z,8.90
2019-02-26T23:32:50.859Z,8.90
2019-02-26T23:37:56.832Z,8.90
2019-02-26T23:43:03.131Z,8.90
2019-02-26T23:48:08.704Z,8.80
2019-02-26T23:53:15.349Z,8.80
2019-02-26T23:58:20.631Z,8.70
